Time;durP1;ratioP1;P1;durP2;ratioP2;P2;SDS_P1;SDS_P2;PMS_P1;PMS_P2;Temp;Humidity;BMP_temperature;BMP_pressure;BME280_temperature;BME280_humidity;BME280_pressure;Samples;Min_cycle;Max_cycle;Signal;HPM_P1;HPM_P2
2021/04/11 00:00:39;;;;;;;1.44;1.34;;;;;;;19.70;42.67;99718.84;;;;-53
2021/04/11 00:03:39;;;;;;;1.40;1.30;;;;;;;19.68;42.67;99714.69;;;;-47
2021/04/11 00:06:39;;;;;;;1.63;1.30;;;;;;;19.66;42.68;99716.32;;;;-49
2021/04/11 00:09:39;;;;;;;1.31;1.21;;;;;;;19.66;42.68;99719.91;;;;-48
2021/04/11 00:12:39;;;;;;;1.27;1.20;;;;;;;19.63;42.69;99723.02;;;;-48
2021/04/11 00:15:39;;;;;;;1.38;1.28;;;;;;;19.63;42.70;99721.95;;;;-47
2021/04/11 00:18:39;;;;;;;1.50;1.40;;;;;;;19.61;42.72;99722.12;;;;-50
2021/04/11 00:21:39;;;;;;;1.39;1.29;;;;;;;19.60;42.72;99723.03;;;;-51
2021/04/11 00:24:39;;;;;;;1.50;1.38;;;;;;;19.60;42.73;99724.33;;;;-53
2021/04/11 00:27:39;;;;;;;1.54;1.30;;;;;;;19.58;42.76;99723.86;;;;-53
2021/04/11 00:30:39;;;;;;;2.00;1.29;;;;;;;19.56;42.74;99721.99;;;;-53
2021/04/11 00:33:39;;;;;;;1.47;1.37;;;;;;;19.56;42.75;99714.44;;;;-49
2021/04/11 00:36:39;;;;;;;1.36;1.26;;;;;;;19.54;42.73;99710.30;;;;-49
2021/04/11 00:39:39;;;;;;;1.40;1.30;;;;;;;19.53;42.74;99707.56;;;;-47
2021/04/11 00:42:39;;;;;;;1.43;1.33;;;;;;;19.51;42.76;99694.79;;;;-53
2021/04/11 00:45:39;;;;;;;1.50;1.40;;;;;;;19.50;42.71;99696.52;;;;-51
2021/04/11 00:48:39;;;;;;;1.40;1.30;;;;;;;19.48;42.78;99696.02;;;;-50
2021/04/11 00:51:39;;;;;;;1.51;1.35;;;;;;;19.48;42.77;99693.91;;;;-47
2021/04/11 00:54:39;;;;;;;1.50;1.40;;;;;;;19.47;42.79;99689.39;;;;-47
2021/04/11 00:57:39;;;;;;;1.65;1.40;;;;;;;19.46;42.81;99684.27;;;;-51
2021/04/11 01:00:39;;;;;;;1.40;1.30;;;;;;;19.45;42.79;99682.08;;;;-51
2021/04/11 01:03:39;;;;;;;1.47;1.37;;;;;;;19.44;42.79;99679.33;;;;-51
2021/04/11 01:06:39;;;;;;;1.51;1.39;;;;;;;19.43;42.77;99678.86;;;;-47
2021/04/11 01:09:39;;;;;;;1.43;1.33;;;;;;;19.42;42.80;99676.02;;;;-48
2021/04/11 01:12:39;;;;;;;1.50;1.40;;;;;;;19.41;42.82;99671.22;;;;-53
2021/04/11 01:15:39;;;;;;;1.78;1.45;;;;;;;19.40;42.81;99668.88;;;;-53
2021/04/11 01:18:40;;;;;;;1.59;1.45;;;;;;;19.40;42.78;99674.22;;;;-47
2021/04/11 01:21:39;;;;;;;1.59;1.39;;;;;;;19.38;42.83;99671.00;;;;-53
2021/04/11 01:24:39;;;;;;;1.50;1.40;;;;;;;19.37;42.83;99668.31;;;;-53
2021/04/11 01:27:39;;;;;;;1.67;1.57;;;;;;;19.36;42.85;99665.38;;;;-51
2021/04/11 01:30:39;;;;;;;1.60;1.50;;;;;;;19.35;42.81;99655.24;;;;-48
2021/04/11 01:33:39;;;;;;;1.49;1.39;;;;;;;19.34;42.85;99650.28;;;;-48
2021/04/11 01:36:39;;;;;;;1.82;1.60;;;;;;;19.33;42.82;99648.51;;;;-49
2021/04/11 01:39:39;;;;;;;1.47;1.37;;;;;;;19.32;42.87;99646.09;;;;-48
2021/04/11 01:42:39;;;;;;;1.53;1.43;;;;;;;19.32;42.83;99648.52;;;;-48
2021/04/11 01:45:39;;;;;;;1.53;1.43;;;;;;;19.30;42.89;99646.36;;;;-47
2021/04/11 01:48:39;;;;;;;1.58;1.48;;;;;;;19.28;42.85;99640.51;;;;-48
2021/04/11 01:51:39;;;;;;;1.60;1.50;;;;;;;19.28;42.87;99641.22;;;;-48
2021/04/11 01:54:39;;;;;;;1.51;1.41;;;;;;;19.27;42.87;99638.63;;;;-51
2021/04/11 01:57:39;;;;;;;1.50;1.40;;;;;;;19.26;42.88;99643.34;;;;-53
2021/04/11 02:00:39;;;;;;;1.51;1.41;;;;;;;19.26;42.88;99649.95;;;;-53
2021/04/11 02:03:39;;;;;;;1.59;1.49;;;;;;;19.25;42.88;99641.81;;;;-52
2021/04/11 02:06:39;;;;;;;1.54;1.44;;;;;;;19.23;42.88;99641.66;;;;-48
2021/04/11 02:09:41;;;;;;;1.45;1.35;;;;;;;19.23;42.90;99641.27;;;;-48
2021/04/11 02:12:39;;;;;;;1.51;1.41;;;;;;;19.22;42.90;99644.61;;;;-50
2021/04/11 02:15:39;;;;;;;1.47;1.37;;;;;;;19.21;42.89;99643.22;;;;-48
2021/04/11 02:18:39;;;;;;;1.73;1.62;;;;;;;19.20;42.90;99642.35;;;;-48
2021/04/11 02:21:39;;;;;;;1.60;1.50;;;;;;;19.19;42.89;99643.30;;;;-49
2021/04/11 02:24:40;;;;;;;1.50;1.40;;;;;;;19.18;42.91;99641.72;;;;-48
2021/04/11 02:27:39;;;;;;;1.60;1.50;;;;;;;19.17;42.92;99640.88;;;;-48
2021/04/11 02:30:39;;;;;;;1.60;1.50;;;;;;;19.17;42.91;99636.99;;;;-48
2021/04/11 02:33:39;;;;;;;1.50;1.40;;;;;;;19.17;42.89;99636.02;;;;-48
2021/04/11 02:36:39;;;;;;;1.50;1.40;;;;;;;19.15;42.91;99636.61;;;;-48
2021/04/11 02:39:39;;;;;;;1.60;1.50;;;;;;;19.15;42.87;99638.40;;;;-48
2021/04/11 02:42:39;;;;;;;1.85;1.41;;;;;;;19.14;42.88;99636.69;;;;-47
2021/04/11 02:45:39;;;;;;;1.73;1.57;;;;;;;19.13;42.92;99636.36;;;;-53
2021/04/11 02:48:39;;;;;;;1.60;1.50;;;;;;;19.13;42.88;99635.72;;;;-48
2021/04/11 02:51:39;;;;;;;1.44;1.34;;;;;;;19.11;42.94;99634.03;;;;-53
2021/04/11 02:54:39;;;;;;;1.53;1.41;;;;;;;19.10;42.93;99633.95;;;;-47
2021/04/11 02:57:39;;;;;;;1.68;1.58;;;;;;;19.10;42.93;99638.58;;;;-47
2021/04/11 03:00:39;;;;;;;1.70;1.60;;;;;;;19.10;42.95;99633.96;;;;-47
2021/04/11 03:03:39;;;;;;;1.93;1.68;;;;;;;19.08;42.95;99630.63;;;;-47
2021/04/11 03:06:39;;;;;;;1.61;1.51;;;;;;;19.07;42.91;99630.40;;;;-47
2021/04/11 03:09:39;;;;;;;1.49;1.39;;;;;;;19.08;42.93;99620.89;;;;-48
2021/04/11 03:12:39;;;;;;;1.63;1.53;;;;;;;19.06;42.92;99622.59;;;;-48
2021/04/11 03:15:39;;;;;;;1.55;1.45;;;;;;;19.05;42.96;99616.58;;;;-47
2021/04/11 03:18:40;;;;;;;1.61;1.51;;;;;;;19.05;42.93;99615.05;;;;-50
2021/04/11 03:21:39;;;;;;;1.60;1.50;;;;;;;19.04;42.91;99614.64;;;;-51
2021/04/11 03:24:39;;;;;;;1.50;1.40;;;;;;;19.04;42.93;99615.13;;;;-51
2021/04/11 03:27:39;;;;;;;1.60;1.50;;;;;;;19.04;42.94;99619.60;;;;-50
2021/04/11 03:30:39;;;;;;;1.46;1.36;;;;;;;19.02;42.93;99623.59;;;;-51
2021/04/11 03:33:39;;;;;;;1.63;1.53;;;;;;;19.02;42.95;99621.73;;;;-47
2021/04/11 03:36:39;;;;;;;1.58;1.48;;;;;;;19.01;42.95;99622.23;;;;-47
2021/04/11 03:39:39;;;;;;;1.59;1.49;;;;;;;19.01;42.95;99629.03;;;;-47
2021/04/11 03:42:39;;;;;;;1.59;1.49;;;;;;;19.00;42.97;99630.67;;;;-52
2021/04/11 03:45:39;;;;;;;1.60;1.50;;;;;;;18.99;42.97;99628.66;;;;-48
2021/04/11 03:48:39;;;;;;;1.61;1.51;;;;;;;18.99;42.97;99631.02;;;;-53
2021/04/11 03:51:39;;;;;;;1.55;1.45;;;;;;;18.98;42.94;99640.50;;;;-52
2021/04/11 03:54:39;;;;;;;1.59;1.49;;;;;;;18.97;42.94;99639.14;;;;-53
2021/04/11 03:57:39;;;;;;;1.51;1.41;;;;;;;18.96;43.00;99632.88;;;;-53
2021/04/11 04:00:39;;;;;;;1.66;1.55;;;;;;;18.95;42.98;99625.02;;;;-53
2021/04/11 04:03:39;;;;;;;1.60;1.50;;;;;;;18.95;42.98;99628.44;;;;-53
2021/04/11 04:06:39;;;;;;;1.61;1.51;;;;;;;18.94;42.97;99624.03;;;;-53
2021/04/11 04:09:39;;;;;;;1.56;1.46;;;;;;;18.94;42.95;99625.09;;;;-53
2021/04/11 04:12:39;;;;;;;1.81;1.60;;;;;;;18.93;42.99;99632.98;;;;-52
2021/04/11 04:15:39;;;;;;;1.39;1.29;;;;;;;18.93;42.97;99630.22;;;;-53
2021/04/11 04:18:39;;;;;;;1.48;1.38;;;;;;;18.92;42.99;99632.56;;;;-53
2021/04/11 04:22:39;;;;;;;1.65;1.54;;;;;;;18.91;43.00;99628.04;;;;-48
2021/04/11 04:25:39;;;;;;;1.48;1.38;;;;;;;18.90;43.03;99622.75;;;;-48
2021/04/11 04:28:39;;;;;;;1.53;1.43;;;;;;;18.90;43.01;99625.03;;;;-47
2021/04/11 04:31:39;;;;;;;1.60;1.50;;;;;;;18.89;42.97;99624.31;;;;-47
2021/04/11 04:34:39;;;;;;;1.60;1.50;;;;;;;18.88;43.01;99626.00;;;;-51
2021/04/11 04:37:39;;;;;;;1.54;1.38;;;;;;;18.89;43.01;99624.41;;;;-48
2021/04/11 04:40:39;;;;;;;1.63;1.53;;;;;;;18.88;43.00;99628.92;;;;-48
2021/04/11 04:43:39;;;;;;;1.70;1.60;;;;;;;18.87;43.01;99630.09;;;;-51
2021/04/11 04:46:39;;;;;;;1.58;1.48;;;;;;;18.86;43.03;99627.47;;;;-51
2021/04/11 04:49:39;;;;;;;1.49;1.39;;;;;;;18.86;43.02;99629.19;;;;-52
2021/04/11 04:52:39;;;;;;;1.69;1.59;;;;;;;18.85;43.00;99627.89;;;;-53
2021/04/11 04:55:39;;;;;;;1.59;1.49;;;;;;;18.85;43.02;99631.08;;;;-53
2021/04/11 04:58:39;;;;;;;1.60;1.50;;;;;;;18.85;43.03;99634.40;;;;-52
2021/04/11 05:01:39;;;;;;;1.58;1.48;;;;;;;18.84;42.99;99634.63;;;;-52
2021/04/11 05:04:41;;;;;;;1.70;1.60;;;;;;;18.84;43.04;99633.98;;;;-47
2021/04/11 05:07:39;;;;;;;1.60;1.50;;;;;;;18.82;43.01;99633.12;;;;-47
2021/04/11 05:10:39;;;;;;;1.47;1.37;;;;;;;18.83;43.01;99625.08;;;;-47
2021/04/11 05:13:39;;;;;;;1.50;1.40;;;;;;;18.82;43.02;99616.05;;;;-47
2021/04/11 05:16:39;;;;;;;1.60;1.50;;;;;;;18.82;43.00;99615.41;;;;-53
2021/04/11 05:19:39;;;;;;;1.51;1.41;;;;;;;18.81;43.01;99614.29;;;;-51
2021/04/11 05:22:39;;;;;;;1.51;1.41;;;;;;;18.81;43.01;99609.83;;;;-51
2021/04/11 05:25:39;;;;;;;1.60;1.50;;;;;;;18.81;43.00;99612.09;;;;-47
2021/04/11 05:28:39;;;;;;;1.50;1.40;;;;;;;18.80;43.02;99615.36;;;;-48
2021/04/11 05:31:39;;;;;;;1.70;1.54;;;;;;;18.80;43.02;99616.71;;;;-53
2021/04/11 05:34:39;;;;;;;1.68;1.58;;;;;;;18.80;43.02;99615.69;;;;-52
2021/04/11 05:37:39;;;;;;;1.50;1.40;;;;;;;18.80;43.05;99623.94;;;;-51
2021/04/11 05:40:39;;;;;;;1.50;1.40;;;;;;;18.81;43.00;99622.73;;;;-48
2021/04/11 05:43:39;;;;;;;1.47;1.37;;;;;;;18.81;42.99;99623.53;;;;-48
2021/04/11 05:46:39;;;;;;;1.51;1.41;;;;;;;18.82;43.01;99621.16;;;;-48
2021/04/11 05:49:39;;;;;;;1.50;1.40;;;;;;;18.83;43.04;99617.60;;;;-51
2021/04/11 05:52:39;;;;;;;1.45;1.35;;;;;;;18.83;43.05;99612.48;;;;-53
2021/04/11 05:55:39;;;;;;;1.49;1.39;;;;;;;18.85;43.02;99613.13;;;;-48
2021/04/11 05:58:39;;;;;;;1.49;1.39;;;;;;;18.87;42.98;99615.23;;;;-47
2021/04/11 06:01:39;;;;;;;1.60;1.50;;;;;;;18.89;42.96;99615.80;;;;-51
2021/04/11 06:04:39;;;;;;;1.44;1.34;;;;;;;18.89;42.97;99618.95;;;;-51
2021/04/11 06:07:39;;;;;;;1.50;1.40;;;;;;;18.91;42.96;99618.53;;;;-51
2021/04/11 06:10:39;;;;;;;1.55;1.45;;;;;;;18.92;42.99;99623.80;;;;-51
2021/04/11 06:13:39;;;;;;;1.40;1.30;;;;;;;18.94;42.98;99627.94;;;;-51
2021/04/11 06:16:39;;;;;;;1.40;1.30;;;;;;;18.94;42.96;99627.59;;;;-48
2021/04/11 06:19:39;;;;;;;1.59;1.49;;;;;;;18.96;42.98;99638.24;;;;-48
2021/04/11 06:22:39;;;;;;;1.51;1.41;;;;;;;18.96;42.97;99643.50;;;;-53
2021/04/11 06:25:39;;;;;;;1.56;1.46;;;;;;;18.98;42.97;99649.84;;;;-53
2021/04/11 06:28:45;;;;;;;1.51;1.41;;;;;;;18.99;42.96;99657.32;;;;-53
2021/04/11 06:31:39;;;;;;;1.45;1.35;;;;;;;19.00;42.95;99667.38;;;;-47
2021/04/11 06:34:39;;;;;;;1.63;1.42;;;;;;;19.01;42.97;99669.09;;;;-48
2021/04/11 06:37:39;;;;;;;1.60;1.50;;;;;;;19.01;42.93;99668.91;;;;-48
2021/04/11 06:40:39;;;;;;;1.47;1.37;;;;;;;19.02;42.93;99662.00;;;;-50
2021/04/11 06:43:39;;;;;;;1.49;1.39;;;;;;;19.02;42.92;99655.18;;;;-47
2021/04/11 06:46:39;;;;;;;1.35;1.25;;;;;;;19.03;42.91;99649.43;;;;-51
2021/04/11 06:49:39;;;;;;;1.55;1.43;;;;;;;19.03;42.86;99645.10;;;;-51
2021/04/11 06:52:39;;;;;;;1.53;1.43;;;;;;;19.04;42.87;99647.55;;;;-51
2021/04/11 06:57:39;;;;;;;1.50;1.40;;;;;;;19.04;42.86;99649.32;;;;-51
2021/04/11 07:00:39;;;;;;;1.58;1.40;;;;;;;19.04;42.87;99643.81;;;;-51
2021/04/11 07:03:39;;;;;;;1.60;1.50;;;;;;;19.04;42.88;99643.48;;;;-47
2021/04/11 07:08:39;;;;;;;1.53;1.43;;;;;;;19.04;42.86;99642.19;;;;-53
2021/04/11 07:11:39;;;;;;;1.45;1.35;;;;;;;19.04;42.87;99646.48;;;;-53
2021/04/11 07:15:39;;;;;;;1.50;1.40;;;;;;;19.04;42.84;99650.80;;;;-53
2021/04/11 07:18:39;;;;;;;1.50;1.40;;;;;;;19.04;42.83;99651.52;;;;-47
2021/04/11 07:22:39;;;;;;;1.40;1.30;;;;;;;19.03;42.83;99649.59;;;;-53
2021/04/11 07:28:39;;;;;;;1.60;1.50;;;;;;;19.03;42.83;99646.58;;;;-53
2021/04/11 07:31:39;;;;;;;1.53;1.43;;;;;;;19.02;42.80;99645.27;;;;-53
2021/04/11 07:34:39;;;;;;;1.49;1.39;;;;;;;19.01;42.87;99646.50;;;;-53
2021/04/11 07:37:39;;;;;;;1.59;1.49;;;;;;;19.02;42.86;99643.65;;;;-51
2021/04/11 07:40:39;;;;;;;1.41;1.31;;;;;;;19.01;42.87;99646.27;;;;-50
2021/04/11 07:45:39;;;;;;;1.49;1.39;;;;;;;19.01;42.85;99645.87;;;;-48
2021/04/11 07:48:39;;;;;;;1.60;1.50;;;;;;;19.00;42.87;99652.19;;;;-53
2021/04/11 07:51:39;;;;;;;1.50;1.40;;;;;;;18.99;42.83;99651.55;;;;-51
2021/04/11 07:54:39;;;;;;;1.50;1.40;;;;;;;18.99;42.86;99657.97;;;;-47
2021/04/11 07:57:39;;;;;;;1.55;1.45;;;;;;;18.99;42.87;99654.64;;;;-53
2021/04/11 08:00:39;;;;;;;1.50;1.40;;;;;;;18.98;42.84;99655.45;;;;-53
2021/04/11 08:03:39;;;;;;;1.32;1.22;;;;;;;18.98;42.84;99650.58;;;;-48
2021/04/11 08:07:39;;;;;;;1.51;1.41;;;;;;;18.96;42.90;99655.36;;;;-53
2021/04/11 08:10:39;;;;;;;1.51;1.41;;;;;;;18.97;42.92;99657.09;;;;-50
2021/04/11 08:13:39;;;;;;;1.37;1.27;;;;;;;18.96;42.88;99658.05;;;;-53
2021/04/11 08:16:39;;;;;;;1.41;1.31;;;;;;;18.97;42.87;99656.44;;;;-52
2021/04/11 08:19:39;;;;;;;1.50;1.40;;;;;;;18.96;42.87;99654.31;;;;-52
2021/04/11 08:22:39;;;;;;;1.48;1.38;;;;;;;18.96;42.87;99657.73;;;;-52
2021/04/11 08:25:39;;;;;;;1.43;1.33;;;;;;;18.95;42.89;99657.33;;;;-48
2021/04/11 08:28:39;;;;;;;1.42;1.32;;;;;;;18.95;42.85;99654.02;;;;-47
2021/04/11 08:33:39;;;;;;;1.52;1.42;;;;;;;18.97;43.45;99658.30;;;;-47
2021/04/11 08:36:39;;;;;;;3.48;1.47;;;;;;;18.99;43.72;99657.87;;;;-49
2021/04/11 08:39:39;;;;;;;1.59;1.40;;;;;;;19.01;43.87;99655.45;;;;-49
2021/04/11 08:42:39;;;;;;;1.49;1.39;;;;;;;19.05;44.07;99651.42;;;;-48
2021/04/11 08:46:39;;;;;;;1.47;1.37;;;;;;;19.11;44.30;99644.33;;;;-51
2021/04/11 08:49:39;;;;;;;1.48;1.38;;;;;;;19.16;44.08;99644.55;;;;-51
2021/04/11 08:52:39;;;;;;;1.63;1.49;;;;;;;19.21;44.27;99639.07;;;;-50
2021/04/11 08:55:39;;;;;;;2.32;1.40;;;;;;;19.26;44.33;99636.06;;;;-54
2021/04/11 08:58:39;;;;;;;1.94;1.58;;;;;;;19.31;44.43;99645.93;;;;-56
2021/04/11 09:01:39;;;;;;;1.50;1.40;;;;;;;19.36;44.45;99646.95;;;;-49
2021/04/11 09:04:39;;;;;;;2.59;1.50;;;;;;;19.41;44.40;99650.82;;;;-54
2021/04/11 09:07:39;;;;;;;2.71;1.50;;;;;;;19.45;44.41;99649.98;;;;-54
2021/04/11 09:10:39;;;;;;;1.95;1.48;;;;;;;19.51;44.12;99645.22;;;;-50
2021/04/11 09:13:39;;;;;;;1.56;1.41;;;;;;;19.55;44.20;99654.55;;;;-51
2021/04/11 09:16:39;;;;;;;1.60;1.50;;;;;;;19.59;44.24;99641.93;;;;-52
2021/04/11 09:19:39;;;;;;;1.50;1.40;;;;;;;19.63;44.01;99643.11;;;;-52
2021/04/11 09:22:39;;;;;;;1.74;1.59;;;;;;;19.68;44.11;99640.96;;;;-51
2021/04/11 09:25:39;;;;;;;2.08;1.69;;;;;;;19.71;44.25;99643.39;;;;-53
2021/04/11 09:28:39;;;;;;;2.77;1.51;;;;;;;19.73;44.03;99644.84;;;;-59
2021/04/11 09:31:39;;;;;;;2.02;1.47;;;;;;;19.76;44.38;99637.94;;;;-53
2021/04/11 09:34:39;;;;;;;6.69;1.54;;;;;;;19.76;44.34;99631.98;;;;-58
2021/04/11 09:37:39;;;;;;;1.75;1.53;;;;;;;19.81;44.40;99630.00;;;;-58
2021/04/11 09:40:39;;;;;;;2.05;1.53;;;;;;;19.83;43.74;99625.51;;;;-54
2021/04/11 09:43:39;;;;;;;1.55;1.31;;;;;;;19.86;43.94;99631.52;;;;-58
2021/04/11 09:46:39;;;;;;;1.58;1.48;;;;;;;19.88;44.23;99636.27;;;;-51
2021/04/11 09:49:39;;;;;;;3.84;1.50;;;;;;;19.90;44.13;99642.43;;;;-61
2021/04/11 09:52:39;;;;;;;1.91;1.50;;;;;;;19.92;44.19;99640.38;;;;-46
2021/04/11 09:55:39;;;;;;;2.14;1.50;;;;;;;19.94;44.34;99639.38;;;;-52
2021/04/11 09:58:39;;;;;;;1.57;1.45;;;;;;;19.96;44.10;99640.91;;;;-52
2021/04/11 10:01:40;;;;;;;1.73;1.41;;;;;;;19.99;44.07;99640.73;;;;-51
2021/04/11 10:04:39;;;;;;;2.54;1.40;;;;;;;20.02;44.37;99639.58;;;;-56
2021/04/11 10:07:39;;;;;;;1.61;1.49;;;;;;;20.03;44.27;99637.45;;;;-48
2021/04/11 10:10:39;;;;;;;2.28;1.50;;;;;;;20.05;44.10;99645.33;;;;-60
2021/04/11 10:13:39;;;;;;;2.00;1.71;;;;;;;20.01;43.39;99645.29;;;;-60
2021/04/11 10:16:39;;;;;;;2.63;1.65;;;;;;;19.97;43.41;99640.67;;;;-60
2021/04/11 10:19:39;;;;;;;3.22;1.93;;;;;;;19.95;43.47;99643.37;;;;-50
2021/04/11 10:22:39;;;;;;;5.05;2.16;;;;;;;19.94;43.51;99641.60;;;;-52
2021/04/11 10:25:39;;;;;;;4.07;2.24;;;;;;;19.93;43.52;99644.13;;;;-62
2021/04/11 10:28:39;;;;;;;5.31;2.53;;;;;;;19.93;43.46;99636.66;;;;-50
2021/04/11 10:31:39;;;;;;;3.46;2.15;;;;;;;19.93;43.34;99633.73;;;;-50
2021/04/11 10:34:39;;;;;;;4.09;1.99;;;;;;;19.93;43.41;99638.83;;;;-60
2021/04/11 10:37:39;;;;;;;3.87;2.39;;;;;;;19.93;43.39;99636.39;;;;-58
2021/04/11 10:40:39;;;;;;;4.63;2.10;;;;;;;19.93;43.46;99636.17;;;;-60
2021/04/11 10:43:39;;;;;;;2.35;2.07;;;;;;;19.94;43.50;99628.34;;;;-60
2021/04/11 10:47:39;;;;;;;3.15;2.21;;;;;;;19.92;43.32;99630.47;;;;-57
2021/04/11 10:50:39;;;;;;;3.21;2.19;;;;;;;19.98;43.60;99636.36;;;;-56
2021/04/11 10:53:39;;;;;;;3.63;1.86;;;;;;;20.03;43.92;99636.40;;;;-56
2021/04/11 10:56:39;;;;;;;4.94;2.08;;;;;;;20.08;44.01;99636.58;;;;-56
2021/04/11 10:59:39;;;;;;;5.60;2.07;;;;;;;20.12;43.63;99639.57;;;;-54
2021/04/11 11:02:39;;;;;;;3.89;2.05;;;;;;;20.13;43.35;99639.05;;;;-54
2021/04/11 11:05:39;;;;;;;3.30;1.77;;;;;;;20.14;43.33;99643.94;;;;-54
2021/04/11 11:08:39;;;;;;;4.09;2.10;;;;;;;20.14;43.22;99642.55;;;;-54
2021/04/11 11:11:39;;;;;;;2.92;1.98;;;;;;;20.15;43.11;99648.70;;;;-54
2021/04/11 11:14:39;;;;;;;5.68;1.97;;;;;;;20.16;43.05;99648.48;;;;-58
2021/04/11 11:17:39;;;;;;;3.89;2.03;;;;;;;20.15;42.94;99644.50;;;;-54
2021/04/11 11:20:39;;;;;;;2.97;1.85;;;;;;;20.16;42.97;99645.30;;;;-57
2021/04/11 11:23:39;;;;;;;2.96;1.98;;;;;;;20.16;42.97;99640.82;;;;-53
2021/04/11 11:26:39;;;;;;;2.70;1.79;;;;;;;20.17;42.83;99634.16;;;;-54
2021/04/11 11:29:39;;;;;;;2.89;1.85;;;;;;;20.17;42.81;99631.14;;;;-53
2021/04/11 11:32:39;;;;;;;2.92;1.92;;;;;;;20.18;42.82;99628.76;;;;-58
2021/04/11 11:35:39;;;;;;;2.03;1.83;;;;;;;20.18;42.75;99623.72;;;;-60
2021/04/11 11:38:39;;;;;;;3.16;1.78;;;;;;;20.18;42.79;99627.53;;;;-57
2021/04/11 11:41:39;;;;;;;4.64;1.85;;;;;;;20.18;42.71;99624.20;;;;-54
2021/04/11 11:44:39;;;;;;;2.63;1.90;;;;;;;20.18;42.71;99630.22;;;;-53
2021/04/11 11:47:39;;;;;;;3.01;2.01;;;;;;;20.18;42.64;99624.61;;;;-53
2021/04/11 11:50:39;;;;;;;2.48;1.81;;;;;;;20.18;42.65;99623.79;;;;-53
2021/04/11 11:53:39;;;;;;;2.90;1.81;;;;;;;20.19;42.66;99617.84;;;;-53
2021/04/11 11:56:41;;;;;;;2.38;1.79;;;;;;;20.19;42.58;99615.97;;;;-57
2021/04/11 11:59:39;;;;;;;2.25;1.69;;;;;;;20.20;42.63;99619.30;;;;-52
2021/04/11 12:02:39;;;;;;;2.98;1.85;;;;;;;20.21;42.61;99620.84;;;;-52
2021/04/11 12:05:39;;;;;;;2.39;1.73;;;;;;;20.21;42.59;99624.91;;;;-52
2021/04/11 12:08:39;;;;;;;3.27;1.87;;;;;;;20.22;42.75;99624.66;;;;-50
2021/04/11 12:11:39;;;;;;;3.06;1.94;;;;;;;20.24;43.25;99626.44;;;;-53
2021/04/11 12:14:39;;;;;;;2.87;1.90;;;;;;;20.26;43.53;99631.22;;;;-56
2021/04/11 12:17:39;;;;;;;2.45;1.79;;;;;;;20.28;43.65;99625.41;;;;-55
2021/04/11 12:20:39;;;;;;;3.15;1.87;;;;;;;20.32;43.83;99632.53;;;;-50
2021/04/11 12:23:39;;;;;;;2.73;1.79;;;;;;;20.34;44.01;99633.56;;;;-58
2021/04/11 12:26:40;;;;;;;4.21;1.76;;;;;;;20.36;44.04;99638.60;;;;-57
2021/04/11 12:29:39;;;;;;;2.55;1.70;;;;;;;20.37;43.87;99640.67;;;;-49
2021/04/11 12:32:39;;;;;;;3.20;1.63;;;;;;;20.41;44.08;99639.02;;;;-48
2021/04/11 12:35:39;;;;;;;3.27;1.74;;;;;;;20.41;44.13;99635.35;;;;-49
2021/04/11 12:38:39;;;;;;;2.23;1.72;;;;;;;20.44;44.16;99638.91;;;;-54
2021/04/11 12:41:39;;;;;;;2.27;1.60;;;;;;;20.45;44.23;99641.50;;;;-47
2021/04/11 12:44:39;;;;;;;2.23;1.70;;;;;;;20.45;43.84;99640.19;;;;-53
2021/04/11 12:47:39;;;;;;;2.39;1.81;;;;;;;20.46;43.97;99640.99;;;;-50
2021/04/11 12:50:39;;;;;;;1.96;1.53;;;;;;;20.48;44.10;99643.36;;;;-49
2021/04/11 12:53:39;;;;;;;2.42;1.82;;;;;;;20.49;44.05;99640.96;;;;-54
2021/04/11 12:56:39;;;;;;;2.25;1.54;;;;;;;20.49;44.34;99635.59;;;;-51
2021/04/11 12:59:39;;;;;;;1.80;1.61;;;;;;;20.51;44.24;99633.88;;;;-47
2021/04/11 13:02:39;;;;;;;2.32;1.70;;;;;;;20.50;44.17;99627.59;;;;-52
2021/04/11 13:05:39;;;;;;;2.91;1.63;;;;;;;20.50;44.04;99629.97;;;;-52
2021/04/11 13:08:39;;;;;;;4.66;1.71;;;;;;;20.52;43.95;99642.39;;;;-56
2021/04/11 13:11:39;;;;;;;3.34;1.70;;;;;;;20.52;43.54;99638.48;;;;-52
2021/04/11 13:14:39;;;;;;;3.41;1.67;;;;;;;20.52;43.36;99637.61;;;;-52
2021/04/11 13:17:39;;;;;;;3.63;1.81;;;;;;;20.52;43.29;99634.34;;;;-57
2021/04/11 13:20:40;;;;;;;2.69;1.40;;;;;;;20.53;43.17;99635.64;;;;-51
2021/04/11 13:23:39;;;;;;;2.54;1.73;;;;;;;20.54;43.16;99630.97;;;;-52
2021/04/11 13:26:40;;;;;;;3.09;1.50;;;;;;;20.54;43.00;99635.20;;;;-57
2021/04/11 13:29:39;;;;;;;2.75;1.63;;;;;;;20.56;43.06;99634.95;;;;-57
2021/04/11 13:32:39;;;;;;;2.00;1.48;;;;;;;20.57;42.90;99633.57;;;;-57
2021/04/11 13:35:39;;;;;;;1.51;1.40;;;;;;;20.56;42.89;99637.96;;;;-52
2021/04/11 13:38:39;;;;;;;2.30;1.49;;;;;;;20.56;42.86;99645.19;;;;-52
2021/04/11 13:41:39;;;;;;;2.63;1.49;;;;;;;20.57;42.88;99650.23;;;;-52
2021/04/11 13:44:39;;;;;;;1.71;1.57;;;;;;;20.58;42.85;99658.88;;;;-52
2021/04/11 13:47:39;;;;;;;2.42;1.51;;;;;;;20.59;42.84;99667.61;;;;-56
2021/04/11 13:50:39;;;;;;;1.69;1.49;;;;;;;20.59;42.82;99676.95;;;;-57
2021/04/11 13:53:39;;;;;;;2.71;1.43;;;;;;;20.58;42.70;99680.94;;;;-57
2021/04/11 13:56:39;;;;;;;2.51;1.59;;;;;;;20.59;42.75;99684.27;;;;-52
2021/04/11 13:59:39;;;;;;;1.98;1.47;;;;;;;20.59;42.77;99690.38;;;;-52
2021/04/11 14:02:39;;;;;;;2.03;1.53;;;;;;;20.58;42.66;99705.03;;;;-52
2021/04/11 14:05:39;;;;;;;2.23;1.46;;;;;;;20.58;42.72;99708.84;;;;-52
2021/04/11 14:08:39;;;;;;;2.41;1.48;;;;;;;20.58;42.67;99712.34;;;;-57
2021/04/11 14:11:39;;;;;;;1.51;1.41;;;;;;;20.58;42.68;99716.17;;;;-57
2021/04/11 14:14:39;;;;;;;2.09;1.39;;;;;;;20.57;42.67;99723.50;;;;-53
2021/04/11 14:17:39;;;;;;;1.67;1.47;;;;;;;20.59;42.69;99737.94;;;;-52
2021/04/11 14:20:39;;;;;;;1.73;1.55;;;;;;;20.58;42.63;99730.75;;;;-53
2021/04/11 14:23:39;;;;;;;1.72;1.35;;;;;;;20.58;42.67;99724.81;;;;-57
2021/04/11 14:26:39;;;;;;;1.47;1.37;;;;;;;20.58;42.61;99727.73;;;;-56
2021/04/11 14:29:39;;;;;;;3.71;1.38;;;;;;;20.59;42.70;99729.45;;;;-51
2021/04/11 14:32:39;;;;;;;3.00;1.64;;;;;;;20.62;43.24;99729.58;;;;-57
2021/04/11 14:35:39;;;;;;;1.59;1.49;;;;;;;20.64;43.40;99728.41;;;;-55
2021/04/11 14:38:39;;;;;;;2.15;1.35;;;;;;;20.66;43.53;99732.95;;;;-54
2021/04/11 14:41:39;;;;;;;1.86;1.33;;;;;;;20.69;43.56;99736.75;;;;-59
2021/04/11 14:44:39;;;;;;;2.77;1.49;;;;;;;20.72;43.56;99740.72;;;;-53
2021/04/11 14:47:40;;;;;;;1.69;1.27;;;;;;;20.75;43.32;99735.71;;;;-50
2021/04/11 14:50:40;;;;;;;1.90;1.33;;;;;;;20.74;43.08;99733.12;;;;-50
2021/04/11 14:53:39;;;;;;;2.99;1.41;;;;;;;20.74;42.83;99744.45;;;;-51
2021/04/11 14:56:39;;;;;;;1.47;1.37;;;;;;;20.76;42.94;99742.55;;;;-51
2021/04/11 14:59:39;;;;;;;1.77;1.40;;;;;;;20.75;42.89;99748.36;;;;-50
2021/04/11 15:02:39;;;;;;;1.50;1.40;;;;;;;20.75;42.86;99748.19;;;;-50
2021/04/11 15:05:39;;;;;;;2.22;1.33;;;;;;;20.76;42.81;99751.92;;;;-52
2021/04/11 15:08:39;;;;;;;1.50;1.38;;;;;;;20.74;42.76;99758.13;;;;-52
2021/04/11 15:11:39;;;;;;;1.40;1.30;;;;;;;20.75;42.76;99771.00;;;;-51
2021/04/11 15:14:39;;;;;;;3.05;1.45;;;;;;;20.75;42.67;99779.28;;;;-50
2021/04/11 15:17:39;;;;;;;1.43;1.31;;;;;;;20.75;42.66;99787.09;;;;-51
2021/04/11 15:20:39;;;;;;;1.68;1.31;;;;;;;20.75;42.67;99808.69;;;;-52
2021/04/11 15:23:39;;;;;;;1.54;1.44;;;;;;;20.75;42.66;99822.19;;;;-51
2021/04/11 15:26:39;;;;;;;1.30;1.20;;;;;;;20.73;42.63;99824.81;;;;-50
2021/04/11 15:29:39;;;;;;;2.28;1.47;;;;;;;20.75;42.99;99825.06;;;;-53
2021/04/11 15:32:39;;;;;;;1.57;1.29;;;;;;;20.75;43.31;99834.09;;;;-61
2021/04/11 15:35:39;;;;;;;2.89;1.30;;;;;;;20.78;43.77;99839.27;;;;-51
2021/04/11 15:38:39;;;;;;;1.66;1.23;;;;;;;20.79;43.79;99854.73;;;;-53
2021/04/11 15:41:39;;;;;;;1.58;1.38;;;;;;;20.81;43.81;99857.48;;;;-51
2021/04/11 15:44:39;;;;;;;1.63;1.37;;;;;;;20.83;43.75;99863.64;;;;-50
2021/04/11 15:47:39;;;;;;;1.31;1.21;;;;;;;20.84;43.83;99870.56;;;;-56
2021/04/11 15:50:39;;;;;;;2.07;1.33;;;;;;;20.87;43.87;99880.38;;;;-53
2021/04/11 15:53:39;;;;;;;1.75;1.37;;;;;;;20.88;43.85;99880.48;;;;-53
2021/04/11 15:56:39;;;;;;;3.42;1.30;;;;;;;20.92;43.96;99884.98;;;;-51
2021/04/11 15:59:39;;;;;;;1.85;1.31;;;;;;;20.94;43.92;99890.36;;;;-55
2021/04/11 16:02:39;;;;;;;1.44;1.29;;;;;;;20.98;43.77;99900.89;;;;-54
2021/04/11 16:05:39;;;;;;;1.45;1.30;;;;;;;21.01;43.91;99895.83;;;;-53
2021/04/11 16:08:39;;;;;;;1.41;1.24;;;;;;;21.03;43.98;99902.83;;;;-61
2021/04/11 16:11:39;;;;;;;1.42;1.32;;;;;;;21.07;43.97;99914.27;;;;-60
2021/04/11 16:14:39;;;;;;;1.30;1.20;;;;;;;21.09;43.83;99922.47;;;;-62
2021/04/11 16:17:39;;;;;;;1.99;1.19;;;;;;;21.10;43.81;99932.23;;;;-58
2021/04/11 16:21:39;;;;;;;1.26;1.16;;;;;;;21.14;43.84;99933.42;;;;-58
2021/04/11 16:24:39;;;;;;;1.45;1.33;;;;;;;21.14;43.66;99935.20;;;;-56
2021/04/11 16:27:39;;;;;;;2.97;1.30;;;;;;;21.18;43.76;99946.03;;;;-56
2021/04/11 16:30:39;;;;;;;2.17;1.27;;;;;;;21.19;43.79;99951.81;;;;-58
2021/04/11 16:33:39;;;;;;;1.56;1.21;;;;;;;21.19;43.74;99963.55;;;;-52
2021/04/11 16:36:39;;;;;;;1.37;1.20;;;;;;;21.21;43.80;99961.58;;;;-50
2021/04/11 16:39:39;;;;;;;1.20;1.10;;;;;;;21.20;43.83;99978.27;;;;-55
2021/04/11 16:42:39;;;;;;;1.39;1.29;;;;;;;21.21;43.88;99984.88;;;;-57
2021/04/11 16:45:39;;;;;;;1.31;1.21;;;;;;;21.21;43.89;99986.02;;;;-52
2021/04/11 16:48:39;;;;;;;1.28;1.18;;;;;;;21.21;43.78;99988.88;;;;-56
2021/04/11 16:51:39;;;;;;;1.31;1.20;;;;;;;21.19;43.41;99988.80;;;;-57
2021/04/11 16:54:39;;;;;;;2.13;1.20;;;;;;;21.17;43.35;99994.53;;;;-57
2021/04/11 16:57:39;;;;;;;1.29;1.13;;;;;;;21.15;43.26;100000.41;;;;-57
2021/04/11 17:00:40;;;;;;;1.37;1.23;;;;;;;21.13;43.23;99999.45;;;;-54
2021/04/11 17:03:39;;;;;;;1.59;1.17;;;;;;;21.12;43.19;99993.66;;;;-54
2021/04/11 17:06:39;;;;;;;2.20;1.28;;;;;;;21.12;43.10;99995.69;;;;-55
2021/04/11 17:09:39;;;;;;;1.14;1.11;;;;;;;21.11;43.05;100010.70;;;;-54
2021/04/11 17:12:39;;;;;;;1.31;1.21;;;;;;;21.10;43.08;100023.09;;;;-55